Flight Track Log - Related Links

Times and Time Zones

All times are in EDT time to prevent confusion due to time zone crossing. See the AAY860 flight status page for this flight to view local times or setup timezone preferences in your user account.

Time Position Orientation Groundspeed Altitude Reporting Facility
EDT Latitude Longitude Course Direction KTS MPH feet Rate Location/Type
Wed 07:01:40 AM 27.9000 -82.6833 331° Northwest 166 191 800  Level Tampa TRACON
Wed 07:02:40 AM 27.8500 -82.6833 180° South 188 216 2,300 1,450 Climbing Tampa TRACON
Wed 07:03:40 AM 27.8500 -82.7333 270° West 220 253 3,700 2,078 Climbing Tampa TRACON
Wed 07:06:05 AM 28.0433 -82.7139 North 288 331 9,400 2,195 Climbing Jacksonville Center
Wed 07:07:00 AM 28.4796 -83.0357 331° Northwest  Level FlightAware Approximate
Wed 07:07:05 AM 28.1289 -82.7208 356° North 294 338 11,200  Level Jacksonville Center
Wed 07:08:05 AM 28.2250 -82.7558 342° North 324 373 13,300 2,400 Climbing Jacksonville Center
Wed 07:09:05 AM 28.3211 -82.7911 342° North 340 391 16,000 2,100 Climbing Jacksonville Center
Wed 07:10:05 AM 28.4192 -82.8242 343° North 358 412 17,500 1,500 Climbing Jacksonville Center
Wed 07:11:05 AM 28.5275 -82.8667 341° North 385 443 19,000 1,600 Climbing Jacksonville Center
Wed 07:12:05 AM 28.6425 -82.9067 343° North 407 468 20,700 1,800 Climbing Jacksonville Center
Wed 07:13:05 AM 28.7447 -82.9400 344° North 422 486 22,600 2,300 Climbing Jacksonville Center
Wed 07:14:05 AM 28.8553 -82.9803 342° North 417 480 25,300 1,950 Climbing Jacksonville Center
Wed 07:15:05 AM 28.9639 -83.0183 343° North 412 474 26,500 1,350 Climbing Jacksonville Center
Wed 07:16:05 AM 29.0744 -83.0564 343° North 412 474 28,000 1,200 Climbing Jacksonville Center
Wed 07:17:05 AM 29.1850 -83.0972 342° North 412 474 28,900 1,050 Climbing Jacksonville Center
Wed 07:18:05 AM 29.2956 -83.1378 342° North 412 474 30,100 950 Climbing Jacksonville Center
Wed 07:19:05 AM 29.4103 -83.1811 342° North 418 481 30,800 950 Climbing Jacksonville Center
Wed 07:20:05 AM 29.5394 -83.2292 342° North 436 502 32,000 600 Climbing Jacksonville Center
Wed 07:21:05 AM 29.6375 -83.2631 343° North 423 487 32,000  Level Jacksonville Center
Wed 07:22:05 AM 29.7503 -83.3042 342° North 423 487 32,000 -50 Level Jacksonville Center
Wed 07:23:05 AM 29.8647 -83.3453 343° North 423 487 31,900  Descending Jacksonville Center
Wed 07:24:05 AM 29.9753 -83.3842 343° North 423 487 32,000 50 Climbing Jacksonville Center
Wed 07:25:05 AM 30.0900 -83.4256 343° North 423 487 32,000  Level Jacksonville Center
Wed 07:26:05 AM 30.2025 -83.4647 343° North 423 487 32,000  Level Jacksonville Center
Wed 07:27:05 AM 30.3111 -83.5061 342° North 423 487 32,000  Level Jacksonville Center
Wed 07:28:05 AM 30.4339 -83.5503 343° North 423 487 32,000  Level Jacksonville Center
Wed 07:29:05 AM 30.5464 -83.5919 342° North 424 488 32,000  Level Jacksonville Center
Wed 07:30:05 AM 30.6569 -83.6339 342° North 418 481 32,000  Level Jacksonville Center
Wed 07:31:05 AM 30.7672 -83.6758 342° North 418 481 32,000  Level Jacksonville Center
Wed 07:32:05 AM 30.8756 -83.7156 343° North 418 481 32,000  Level Jacksonville Center
Wed 07:33:05 AM 30.9861 -83.7578 342° North 413 475 32,000  Level Jacksonville Center
Wed 07:34:05 AM 31.0964 -83.8000 342° North 413 475 32,000  Level Jacksonville Center
Wed 07:35:05 AM 31.2067 -83.8375 344° North 413 475 32,000  Level Jacksonville Center
Wed 07:36:58 AM 31.3981 -83.9125 342° North 400 460 32,000  Level Atlanta Center
Wed 07:37:58 AM 31.5150 -83.9561 342° North 400 460 32,000  Level Atlanta Center
Wed 07:38:58 AM 31.6233 -83.9828 348° North 400 460 32,000  Level Atlanta Center
Wed 07:39:58 AM 31.7319 -84.0094 348° North 394 453 32,000  Level Atlanta Center
Wed 07:40:58 AM 31.8406 -84.0317 350° North 394 453 32,000  Level Atlanta Center
Wed 07:41:58 AM 31.9492 -84.0536 350° North 394 453 32,000  Level Atlanta Center
Wed 07:42:58 AM 32.0556 -84.0756 350° North 389 448 32,000  Level Atlanta Center
Wed 07:43:58 AM 32.1619 -84.1003 349° North 389 448 32,000  Level Atlanta Center
Wed 07:44:58 AM 32.2706 -84.1247 349° North 389 448 32,000  Level Atlanta Center
Wed 07:45:58 AM 32.3769 -84.1494 349° North 389 448 32,000  Level Atlanta Center
Wed 07:46:58 AM 32.4811 -84.1742 349° North 389 448 32,000  Level Atlanta Center
Wed 07:47:58 AM 32.5897 -84.1992 349° North 389 448 32,000  Level Atlanta Center
Wed 07:48:58 AM 32.6983 -84.2214 350° North 394 453 32,000  Level Atlanta Center
Wed 07:49:58 AM 32.7839 -84.2414 349° North 394 453 32,000  Level Atlanta Center
Wed 07:50:58 AM 32.9028 -84.2764 346° North 394 453 32,000  Level Atlanta Center
Wed 07:51:58 AM 33.0111 -84.2989 350° North 394 453 32,000  Level Atlanta Center
Wed 07:52:58 AM 33.1197 -84.3242 349° North 394 453 32,000  Level Atlanta Center
Wed 07:53:58 AM 33.2408 -84.3517 349° North 394 453 32,000  Level Atlanta Center
Wed 07:54:58 AM 33.3514 -84.3769 349° North 394 453 32,000  Level Atlanta Center
Wed 07:55:58 AM 33.4619 -84.4000 350° North 399 459 32,000  Level Atlanta Center
Wed 07:56:58 AM 33.5725 -84.4253 349° North 399 459 32,000  Level Atlanta Center
Wed 07:57:58 AM 33.6767 -84.4258 360° North 398 458 32,000  Level Atlanta Center
Wed 07:58:58 AM 33.7936 -84.3986 11° North 406 467 32,000  Level Atlanta Center
Wed 07:59:58 AM 33.9086 -84.3717 11° North 411 473 32,000  Level Atlanta Center
Wed 08:00:58 AM 34.0297 -84.3447 10° North 426 490 32,000  Level Atlanta Center
Wed 08:01:58 AM 34.1633 -84.3100 12° North 437 503 32,000  Level Atlanta Center
Wed 08:02:58 AM 34.2844 -84.2828 11° North 442 509 32,000  Level Atlanta Center
Wed 08:03:58 AM 34.4014 -84.2553 11° North 442 509 32,000  Level Atlanta Center
Wed 08:04:58 AM 34.5225 -84.2253 12° North 437 503 32,000  Level Atlanta Center
Wed 08:05:58 AM 34.6414 -84.1978 11° North 432 497 32,000  Level Atlanta Center
Wed 08:06:58 AM 34.7481 -84.1753 10° North 426 490 32,000  Level Atlanta Center
Wed 08:07:58 AM 34.8669 -84.1503 10° North 431 496 32,000  Level Atlanta Center
Wed 08:08:58 AM 34.9858 -84.1172 13° North 431 496 32,000  Level Atlanta Center
Wed 08:09:58 AM 35.1069 -84.0869 12° North 431 496 32,000 -200 Level Atlanta Center
Wed 08:10:58 AM 35.2281 -84.0617 10° North 431 496 31,600 -700 Descending Atlanta Center
Wed 08:11:58 AM 35.3511 -84.0692 357° North 431 496 30,600 -800 Descending Atlanta Center
Wed 08:12:58 AM 35.4722 -84.0872 353° North 430 495 30,000 -300 Descending Atlanta Center
Wed 08:13:58 AM 35.5972 -84.1053 353° North 443 510 30,000  Level Atlanta Center
Wed 08:14:58 AM 35.7225 -84.1231 353° North 443 510 30,000 -400 Level Atlanta Center
Wed 08:15:58 AM 35.8497 -84.1439 352° North 448 516 29,200 -500 Descending Atlanta Center
Wed 08:16:58 AM 35.9769 -84.1644 353° North 448 516 29,000 -446 Descending Atlanta Center
Wed 08:17:59 AM 36.1269 -84.1836 354° North 464 534 28,300 -829 Descending Indianapolis Center
Wed 08:19:01 AM 36.2531 -84.2047 352° North 464 534 27,300 -927 Descending Indianapolis Center
Wed 08:20:02 AM 36.3758 -84.2239 353° North 454 522 26,400 -927 Descending Indianapolis Center
Wed 08:21:04 AM 36.4947 -84.2411 353° North 442 509 25,400 -1,024 Descending Indianapolis Center
Wed 08:22:05 AM 36.6153 -84.2606 353° North 428 493 24,300 -1,033 Descending Indianapolis Center
Wed 08:23:06 AM 36.7294 -84.2778 353° North 418 481 23,300 -634 Descending Indianapolis Center
Wed 08:24:08 AM 36.8447 -84.2961 353° North 418 481 23,000 -146 Descending Indianapolis Center
Wed 08:25:09 AM 36.9608 -84.3142 353° North 418 481 23,000 -780 Level Indianapolis Center
Wed 08:26:11 AM 37.0781 -84.3331 353° North 418 481 21,400 -2,049 Descending Indianapolis Center
Wed 08:27:12 AM 37.1944 -84.3500 353° North 418 481 18,800 -2,780 Descending Indianapolis Center
Wed 08:28:14 AM 37.3094 -84.3681 353° North 418 481 15,700 -2,976 Descending Indianapolis Center
Wed 08:29:15 AM 37.4394 -84.3897 352° North 405 466 12,700 -2,361 Descending Indianapolis Center
Wed 08:30:16 AM 37.5486 -84.3744 North 398 458 10,900 -1,317 Descending Indianapolis Center
Wed 08:31:18 AM 37.6469 -84.3439 14° North 370 426 10,000 -1,068 Descending Indianapolis Center
Wed 08:32:14 AM 37.7275 -84.3167 15° North 322 371 8,800 -1,180 Descending Indianapolis Center
Wed 08:32:19 AM 37.7350 -84.3147 12° North 336 387 8,800 -1,343 Level Indianapolis Center
Wed 08:33:21 AM 37.8189 -84.3006 North 309 356 7,300 -1,463 Descending Indianapolis Center
Wed 08:34:22 AM 37.9003 -84.2900 North 298 343 5,800 -1,131 Descending Indianapolis Center
Wed 08:35:23 AM 37.9803 -84.2769 North 293 337 5,000 -425 Descending Indianapolis Center
Wed 08:36:15 AM 38.0431 -84.2628 10° North 240 276 5,000  Level Indianapolis Center
Wed 08:36:25 AM 38.0508 -84.2614 North 275 316 5,000 -1,352 Level Indianapolis Center
Wed 08:37:26 AM 38.1133 -84.2681 355° North 248 285 3,400 -878 Descending Indianapolis Center
Wed 08:38:28 AM 38.1700 -84.2997 336° Northwest 214 246 3,200 -49 Descending Indianapolis Center
Wed 08:39:29 AM 38.1828 -84.3522 287° West 173 199 3,300 -56 Climbing Indianapolis Center
Wed 08:40:15 AM 38.1897 -84.3872 284° West 133 153 3,100 -98 Descending Indianapolis Center
Wed 08:40:30 AM 38.1908 -84.3986 277° West 148 170 3,200 78 Climbing Indianapolis Center
Wed 08:41:32 AM 38.1783 -84.4422 250° West 134 154 3,200 49 Level Indianapolis Center
Wed 08:42:33 AM 38.1528 -84.4742 225° Southwest 132 152 3,300  Climbing Indianapolis Center
Wed 08:43:34 AM 38.1258 -84.5061 223° Southwest 132 152 3,200 -380 Descending Indianapolis Center
Wed 08:43:52 AM 38.1158 -84.5169 220° Southwest 126 145 2,800 -581 Descending Indianapolis Center
Wed 08:44:36 AM 38.0994 -84.5339 219° Southwest 131 151 2,600 -400 Descending Indianapolis Center
Wed 08:45:37 AM 38.0767 -84.5617 224° Southwest 130 150 2,100 -492 Descending Indianapolis Center

Login

Don't have an account? Register now (free) for customized features, flight alerts, and more!